createdAt,value
2022-12-20T00:03:08.795Z,23.63
2022-12-20T00:09:12.384Z,20.93
2022-12-20T00:15:14.309Z,19.30
2022-12-20T00:21:16.299Z,22.07
2022-12-20T00:27:18.193Z,24.07
2022-12-20T00:33:20.081Z,23.80
2022-12-20T00:39:21.960Z,22.47
2022-12-20T00:45:23.844Z,19.67
2022-12-20T00:51:29.352Z,24.80
2022-12-20T00:57:31.221Z,25.17
2022-12-20T01:03:33.238Z,20.90
2022-12-20T01:09:35.163Z,24.10
2022-12-20T01:15:37.420Z,22.20
2022-12-20T01:21:44.304Z,27.03
2022-12-20T01:27:46.324Z,20.83
2022-12-20T01:33:50.354Z,18.97
2022-12-20T01:39:52.338Z,19.87
2022-12-20T01:45:54.272Z,22.87
2022-12-20T01:52:18.241Z,22.30
2022-12-20T01:58:21.348Z,20.00
2022-12-20T02:04:23.292Z,20.13
2022-12-20T02:10:50.535Z,19.93
2022-12-20T02:17:32.737Z,17.83
2022-12-20T02:24:11.289Z,24.17
2022-12-20T02:30:25.788Z,24.70
2022-12-20T02:36:27.700Z,23.03
2022-12-20T02:42:32.605Z,29.00
2022-12-20T02:48:35.339Z,20.77
2022-12-20T02:54:38.259Z,25.50
2022-12-20T03:00:45.876Z,24.97
2022-12-20T03:06:58.046Z,23.60
2022-12-20T03:12:59.963Z,19.63
2022-12-20T03:19:01.843Z,19.03
2022-12-20T03:25:04.356Z,24.87
2022-12-20T03:31:06.421Z,18.33
2022-12-20T03:37:08.386Z,16.17
2022-12-20T03:43:10.283Z,16.97
2022-12-20T03:49:12.268Z,17.80
2022-12-20T03:55:14.192Z,23.40
2022-12-20T04:01:26.479Z,22.20
2022-12-20T04:07:28.620Z,20.30
2022-12-20T04:13:30.510Z,17.87
2022-12-20T04:19:32.444Z,19.30
2022-12-20T04:25:34.340Z,22.40
2022-12-20T04:31:36.548Z,31.33
2022-12-20T04:37:38.525Z,23.53
2022-12-20T04:43:40.415Z,19.50
2022-12-20T04:49:42.299Z,20.73
2022-12-20T04:55:44.216Z,19.67
2022-12-20T05:01:47.172Z,24.67
2022-12-20T05:07:49.170Z,20.20
2022-12-20T05:13:51.069Z,18.70
2022-12-20T05:19:53.025Z,16.50
2022-12-20T05:26:14.214Z,15.97
2022-12-20T05:32:16.101Z,18.80
2022-12-20T05:38:18.014Z,17.40
2022-12-20T05:44:22.160Z,23.30
2022-12-20T05:50:24.284Z,13.90
2022-12-20T05:56:26.144Z,18.77
2022-12-20T06:02:28.422Z,21.57
2022-12-20T06:08:30.414Z,18.00
2022-12-20T06:14:32.287Z,17.80
2022-12-20T06:20:35.695Z,21.50
2022-12-20T06:26:37.855Z,17.73
2022-12-20T06:32:39.804Z,18.00
2022-12-20T06:38:41.780Z,18.20
2022-12-20T06:44:43.691Z,22.67
2022-12-20T06:50:48.070Z,23.23
2022-12-20T06:56:54.043Z,20.90
2022-12-20T07:02:56.056Z,21.83
2022-12-20T07:08:58.240Z,17.40
2022-12-20T07:15:00.433Z,18.87
2022-12-20T07:21:05.160Z,21.03
2022-12-20T07:27:08.014Z,22.97
2022-12-20T07:33:09.896Z,18.73
2022-12-20T07:39:11.914Z,17.40
2022-12-20T07:45:13.803Z,20.33
2022-12-20T07:51:29.481Z,19.23
2022-12-20T07:57:57.486Z,20.13
2022-12-20T08:04:09.285Z,23.70
2022-12-20T08:10:14.263Z,15.37
2022-12-20T08:16:16.475Z,19.03
2022-12-20T08:22:19.386Z,17.70
2022-12-20T08:28:21.406Z,17.53
2022-12-20T08:34:23.395Z,15.33
2022-12-20T08:40:25.385Z,19.23
2022-12-20T08:46:27.379Z,19.27
2022-12-20T08:52:29.714Z,12.83
2022-12-20T08:58:33.056Z,12.43
2022-12-20T09:04:35.021Z,17.23
2022-12-20T09:10:36.897Z,13.77
2022-12-20T09:16:38.822Z,12.30
2022-12-20T09:22:40.702Z,14.10
2022-12-20T09:28:43.530Z,16.50
2022-12-20T09:34:45.397Z,14.80
2022-12-20T09:40:51.821Z,15.00
2022-12-20T09:47:10.167Z,9.57
2022-12-20T09:53:52.019Z,12.00
2022-12-20T09:59:58.202Z,16.27
2022-12-20T10:06:35.612Z,14.77
2022-12-20T10:13:19.042Z,14.17
2022-12-20T10:19:48.144Z,11.10
2022-12-20T10:25:59.205Z,14.30
2022-12-20T10:32:02.270Z,9.70
2022-12-20T10:38:08.280Z,9.80
2022-12-20T10:44:22.288Z,7.47
2022-12-20T10:50:25.206Z,9.27
2022-12-20T10:56:39.012Z,8.20
2022-12-20T11:02:42.988Z,9.10
2022-12-20T11:08:53.980Z,9.00
2022-12-20T11:15:34.160Z,13.03
2022-12-20T11:21:58.940Z,8.27
2022-12-20T11:28:36.372Z,7.00
2022-12-20T11:35:12.990Z,8.47
2022-12-20T11:41:41.831Z,8.10
2022-12-20T11:47:46.661Z,6.63
2022-12-20T11:54:01.827Z,11.30
2022-12-20T12:00:06.517Z,8.87
2022-12-20T12:06:27.263Z,7.50
2022-12-20T12:13:20.384Z,8.00
2022-12-20T12:19:26.486Z,6.67
2022-12-20T12:25:28.409Z,6.93
2022-12-20T12:31:49.953Z,8.73
2022-12-20T12:39:02.086Z,7.60
2022-12-20T12:45:20.921Z,7.73
2022-12-20T12:51:35.650Z,10.60
2022-12-20T12:58:12.952Z,5.97
2022-12-20T13:04:20.828Z,6.20
2022-12-20T13:10:25.085Z,6.80
2022-12-20T13:17:02.206Z,7.37
2022-12-20T13:23:12.642Z,6.73
2022-12-20T13:29:54.024Z,11.93
2022-12-20T13:36:10.716Z,9.10
2022-12-20T13:42:38.625Z,10.57
2022-12-20T13:48:56.969Z,9.40
2022-12-20T13:55:34.889Z,7.20
2022-12-20T14:01:37.352Z,6.73
2022-12-20T14:07:40.212Z,7.00
2022-12-20T14:13:42.712Z,7.20
2022-12-20T14:19:44.926Z,9.30
2022-12-20T14:25:59.932Z,9.73
2022-12-20T14:32:01.821Z,9.07
2022-12-20T14:38:04.271Z,9.03
2022-12-20T14:44:22.764Z,6.67
2022-12-20T14:50:34.560Z,8.93
2022-12-20T14:56:36.489Z,8.50
2022-12-20T15:02:51.182Z,12.97
2022-12-20T15:08:53.280Z,9.73
2022-12-20T15:14:55.227Z,10.97
2022-12-20T15:21:12.016Z,12.70
2022-12-20T15:27:15.019Z,13.00
2022-12-20T15:33:25.188Z,9.03
2022-12-20T15:39:27.733Z,8.80
2022-12-20T15:45:29.719Z,8.90
2022-12-20T15:51:37.847Z,8.70
2022-12-20T15:57:39.914Z,10.00
2022-12-20T16:03:41.916Z,10.20
2022-12-20T16:09:44.393Z,13.07
2022-12-20T16:15:46.481Z,8.53
2022-12-20T16:21:51.270Z,8.97
2022-12-20T16:27:53.312Z,9.83
2022-12-20T16:33:56.893Z,13.23
2022-12-20T16:39:58.777Z,11.67
2022-12-20T16:46:00.666Z,10.70
2022-12-20T16:52:05.846Z,17.00
2022-12-20T16:58:07.764Z,9.90
2022-12-20T17:04:15.634Z,10.10
2022-12-20T17:10:17.879Z,13.20
2022-12-20T17:16:21.103Z,7.87
2022-12-20T17:22:23.071Z,12.53
2022-12-20T17:28:26.303Z,10.23
2022-12-20T17:34:30.352Z,8.63
2022-12-20T17:40:32.481Z,10.20
2022-12-20T17:46:34.362Z,8.80
2022-12-20T17:52:36.239Z,12.67
2022-12-20T17:58:38.155Z,11.10
2022-12-20T18:04:40.046Z,11.53
2022-12-20T18:10:41.971Z,9.37
2022-12-20T18:16:44.393Z,12.33
2022-12-20T18:22:46.432Z,11.50
2022-12-20T18:28:53.731Z,10.77
2022-12-20T18:34:55.821Z,11.03
2022-12-20T18:41:03.197Z,11.73
2022-12-20T18:47:05.378Z,14.63
2022-12-20T18:53:07.307Z,12.90
2022-12-20T18:59:12.387Z,9.90
2022-12-20T19:05:16.004Z,12.63
2022-12-20T19:11:23.043Z,11.77
2022-12-20T19:17:24.962Z,12.10
2022-12-20T19:23:26.897Z,14.07
2022-12-20T19:29:28.776Z,13.77
2022-12-20T19:35:54.806Z,11.70
2022-12-20T19:42:22.272Z,17.40
2022-12-20T19:48:14.830Z,12.47
2022-12-20T19:54:16.739Z,13.10
2022-12-20T20:00:19.093Z,11.93
2022-12-20T20:06:23.963Z,12.43
2022-12-20T20:12:25.902Z,14.43
2022-12-20T20:18:28.667Z,12.10
2022-12-20T20:24:30.760Z,13.20
2022-12-20T20:30:33.175Z,12.30
2022-12-20T20:36:35.212Z,14.57
2022-12-20T20:42:37.279Z,11.50
2022-12-20T20:48:40.229Z,16.07
2022-12-20T20:54:42.119Z,12.33
2022-12-20T21:00:44.248Z,14.93
2022-12-20T21:06:46.548Z,11.80
2022-12-20T21:12:49.016Z,14.87
2022-12-20T21:18:57.358Z,10.63
2022-12-20T21:25:00.329Z,12.17
2022-12-20T21:31:05.745Z,13.90
2022-12-20T21:37:07.889Z,12.27
2022-12-20T21:43:09.783Z,14.43
2022-12-20T21:49:11.939Z,12.03
2022-12-20T21:55:13.916Z,15.00
2022-12-20T22:01:20.121Z,13.70
2022-12-20T22:07:22.396Z,12.80
2022-12-20T22:13:24.301Z,11.97
2022-12-20T22:19:26.193Z,14.20
2022-12-20T22:25:28.326Z,17.20
2022-12-20T22:31:30.660Z,13.13
2022-12-20T22:37:32.654Z,13.90
2022-12-20T22:43:34.544Z,15.67
2022-12-20T22:49:36.549Z,14.90
2022-12-20T22:55:38.455Z,17.00
2022-12-20T23:01:40.473Z,20.00
2022-12-20T23:07:42.403Z,19.93
2022-12-20T23:14:02.715Z,14.50
2022-12-20T23:20:24.243Z,13.40
2022-12-20T23:26:26.491Z,19.10
2022-12-20T23:32:29.026Z,18.73
2022-12-20T23:38:36.877Z,19.50
2022-12-20T23:44:38.810Z,17.20
2022-12-20T23:50:40.777Z,16.27
2022-12-20T23:56:42.674Z,19.70
